Time;durP1;ratioP1;P1;durP2;ratioP2;P2;SDS_P1;SDS_P2;PMS_P1;PMS_P2;Temp;Humidity;BMP_temperature;BMP_pressure;BME280_temperature;BME280_humidity;BME280_pressure;Samples;Min_cycle;Max_cycle;Signal;HPM_P1;HPM_P2
2024/01/29 00:00:24;;;;;;;6.80;5.30;;;;;;;;;;43422;282;3030804;-33
2024/01/29 00:02:52;;;;;;;7.00;5.10;;;;;;;;;;43336;275;3031684;-32
2024/01/29 00:04:37;;;;;;;7.40;4.90;;;;;;;;;;43345;274;3031897;-32
2024/01/29 00:06:28;;;;;;;7.20;5.30;;;;;;;;;;43282;291;3030937;-32
2024/01/29 00:08:14;;;;;;;6.70;5.30;;;;;;;;;;43334;282;3031161;-32
2024/01/29 00:09:59;;;;;;;7.70;5.30;;;;;;;;;;43316;282;3032364;-32
2024/01/29 00:11:47;;;;;;;6.50;5.20;;;;;;;;;;43315;291;3030420;-32
2024/01/29 00:13:31;;;;;;;6.50;5.10;;;;;;;;;;43312;275;3031466;-32
2024/01/29 00:15:22;;;;;;;6.60;5.00;;;;;;;;;;43307;275;3030583;-32
2024/01/29 00:17:07;;;;;;;7.80;5.30;;;;;;;;;;44050;283;3031213;-32
2024/01/29 00:18:56;;;;;;;7.30;5.30;;;;;;;;;;43338;271;3030501;-32
2024/01/29 00:20:42;;;;;;;7.20;5.20;;;;;;;;;;43302;284;3031231;-31
2024/01/29 00:22:29;;;;;;;8.40;5.70;;;;;;;;;;43572;277;3031348;-31
2024/01/29 00:24:15;;;;;;;7.80;5.50;;;;;;;;;;43317;284;3030480;-31
2024/01/29 00:26:02;;;;;;;7.20;5.40;;;;;;;;;;43304;284;3030775;-32
2024/01/29 00:27:49;;;;;;;7.30;5.20;;;;;;;;;;43311;284;3031068;-32
2024/01/29 00:29:36;;;;;;;7.20;5.30;;;;;;;;;;43327;275;3031237;-32
2024/01/29 00:31:22;;;;;;;7.40;5.30;;;;;;;;;;43332;275;3030949;-32
2024/01/29 00:33:08;;;;;;;7.10;5.50;;;;;;;;;;43288;284;3031661;-32
2024/01/29 00:34:53;;;;;;;8.00;5.80;;;;;;;;;;43320;275;3031133;-32
2024/01/29 00:36:40;;;;;;;7.70;5.90;;;;;;;;;;43337;284;3031148;-32
2024/01/29 00:38:30;;;;;;;7.70;5.40;;;;;;;;;;43290;292;3039070;-32
2024/01/29 00:40:17;;;;;;;7.40;5.60;;;;;;;;;;43329;283;3031225;-32
2024/01/29 00:42:03;;;;;;;7.60;5.40;;;;;;;;;;43685;275;3030501;-32
2024/01/29 00:43:51;;;;;;;8.10;5.70;;;;;;;;;;43334;275;3031591;-33
2024/01/29 00:45:39;;;;;;;7.90;5.60;;;;;;;;;;43349;283;3030657;-32
2024/01/29 00:47:25;;;;;;;7.60;5.50;;;;;;;;;;43316;275;3030733;-31
2024/01/29 00:49:17;;;;;;;7.70;5.80;;;;;;;;;;43301;284;3031512;-32
2024/01/29 00:51:08;;;;;;;7.20;5.40;;;;;;;;;;43293;272;3031002;-31
2024/01/29 00:52:54;;;;;;;7.40;5.60;;;;;;;;;;43418;283;3031036;-31
2024/01/29 00:54:43;;;;;;;8.30;5.80;;;;;;;;;;43318;283;3030044;-31
2024/01/29 00:56:31;;;;;;;7.50;5.70;;;;;;;;;;43336;283;3029462;-31
2024/01/29 00:58:19;;;;;;;7.80;5.60;;;;;;;;;;43326;272;3030494;-31
2024/01/29 01:00:10;;;;;;;8.00;5.40;;;;;;;;;;43383;275;3030447;-31
2024/01/29 01:02:02;;;;;;;7.60;5.60;;;;;;;;;;43367;284;3030518;-31
2024/01/29 01:03:46;;;;;;;;;;;;;;;;;;43302;284;3030798;-31
2024/01/29 01:05:39;;;;;;;7.50;5.30;;;;;;;;;;43298;284;3030084;-31
2024/01/29 01:07:29;;;;;;;7.30;5.10;;;;;;;;;;43291;277;3031424;-31
2024/01/29 01:09:19;;;;;;;7.70;5.60;;;;;;;;;;43283;284;3036725;-31
2024/01/29 01:11:06;;;;;;;7.30;5.40;;;;;;;;;;43304;281;3030972;-31
2024/01/29 01:12:55;;;;;;;6.70;5.30;;;;;;;;;;43319;276;3030805;-31
2024/01/29 01:14:47;;;;;;;7.40;5.60;;;;;;;;;;43313;281;3031487;-31
2024/01/29 01:16:41;;;;;;;7.20;5.40;;;;;;;;;;43285;281;3031340;-31
2024/01/29 01:18:33;;;;;;;7.30;5.20;;;;;;;;;;43278;284;3031461;-31
2024/01/29 01:20:25;;;;;;;7.70;5.70;;;;;;;;;;43319;282;3030547;-31
2024/01/29 01:22:14;;;;;;;6.90;5.20;;;;;;;;;;43842;283;3030856;-31
2024/01/29 01:24:04;;;;;;;7.80;5.20;;;;;;;;;;43312;274;3031085;-31
2024/01/29 01:25:52;;;;;;;6.40;5.00;;;;;;;;;;43377;278;3031223;-31
2024/01/29 01:27:42;;;;;;;7.50;5.30;;;;;;;;;;43314;282;3030483;-31
2024/01/29 01:29:35;;;;;;;7.20;5.40;;;;;;;;;;43307;274;3030461;-31
2024/01/29 01:31:28;;;;;;;6.40;4.80;;;;;;;;;;43339;278;3031234;-31
2024/01/29 01:33:19;;;;;;;7.70;5.40;;;;;;;;;;43302;274;3031061;-31
2024/01/29 01:35:09;;;;;;;6.90;5.30;;;;;;;;;;43320;283;3031417;-31
2024/01/29 01:36:57;;;;;;;7.50;5.40;;;;;;;;;;43356;286;3030616;-31
2024/01/29 01:38:48;;;;;;;7.10;5.50;;;;;;;;;;43739;279;3031154;-31
2024/01/29 01:40:39;;;;;;;7.50;5.20;;;;;;;;;;43337;274;3031369;-31
2024/01/29 01:42:26;;;;;;;7.00;4.80;;;;;;;;;;43305;282;3030530;-31
2024/01/29 01:44:20;;;;;;;7.00;5.20;;;;;;;;;;43307;286;3031102;-31
2024/01/29 01:46:21;;;;;;;7.10;5.10;;;;;;;;;;43331;275;3031374;-31
2024/01/29 01:48:08;;;;;;;7.10;4.90;;;;;;;;;;43324;282;3030753;-31
2024/01/29 01:49:57;;;;;;;6.80;5.20;;;;;;;;;;43613;275;3030884;-31
2024/01/29 01:51:46;;;;;;;7.20;4.90;;;;;;;;;;43326;282;3031934;-31
2024/01/29 01:53:44;;;;;;;6.40;4.90;;;;;;;;;;43600;279;3030622;-31
2024/01/29 01:55:38;;;;;;;7.20;5.10;;;;;;;;;;43315;275;3031985;-31
2024/01/29 01:57:29;;;;;;;6.50;4.90;;;;;;;;;;43329;282;3030747;-31
2024/01/29 01:59:21;;;;;;;6.60;4.90;;;;;;;;;;43276;267;3030784;-31
2024/01/29 02:01:10;;;;;;;6.70;5.20;;;;;;;;;;43300;275;3031189;-31
2024/01/29 02:03:01;;;;;;;6.90;5.20;;;;;;;;;;43287;275;3030168;-31
2024/01/29 02:04:50;;;;;;;7.00;5.00;;;;;;;;;;43332;271;3031335;-31
2024/01/29 02:06:42;;;;;;;7.20;4.80;;;;;;;;;;43309;282;3030270;-31
2024/01/29 02:08:37;;;;;;;7.40;5.20;;;;;;;;;;43321;275;3031959;-31
2024/01/29 02:10:25;;;;;;;7.00;5.20;;;;;;;;;;43520;271;3031297;-31
2024/01/29 02:12:14;;;;;;;7.90;5.20;;;;;;;;;;43326;274;3030513;-31
2024/01/29 02:14:00;;;;;;;7.20;4.90;;;;;;;;;;43335;275;3033320;-31
2024/01/29 02:15:51;;;;;;;6.50;4.80;;;;;;;;;;43320;283;3030435;-31
2024/01/29 02:17:36;;;;;;;6.50;4.90;;;;;;;;;;44077;279;3030975;-31
2024/01/29 02:19:23;;;;;;;7.10;5.00;;;;;;;;;;43769;275;3030651;-31
2024/01/29 02:21:14;;;;;;;7.40;4.90;;;;;;;;;;43300;291;3037294;-31
2024/01/29 02:22:59;;;;;;;7.00;5.00;;;;;;;;;;44074;271;3031147;-31
2024/01/29 02:24:46;;;;;;;7.00;5.20;;;;;;;;;;43329;271;3030987;-31
2024/01/29 02:26:36;;;;;;;6.80;4.90;;;;;;;;;;43335;271;3031419;-31
2024/01/29 02:28:25;;;;;;;6.80;5.10;;;;;;;;;;43328;283;3031433;-31
2024/01/29 02:30:13;;;;;;;7.30;5.00;;;;;;;;;;44058;276;3032078;-31
2024/01/29 02:31:58;;;;;;;6.40;4.70;;;;;;;;;;44114;275;3031107;-31
2024/01/29 02:33:46;;;;;;;7.00;5.30;;;;;;;;;;43876;270;3029963;-31
2024/01/29 02:35:35;;;;;;;6.40;4.50;;;;;;;;;;43399;282;3031720;-31
2024/01/29 02:37:26;;;;;;;6.50;4.70;;;;;;;;;;43409;282;3030944;-31
2024/01/29 02:39:17;;;;;;;6.30;4.50;;;;;;;;;;43392;282;3030896;-31
2024/01/29 02:41:06;;;;;;;5.90;4.70;;;;;;;;;;43380;270;3030881;-31
2024/01/29 02:42:51;;;;;;;6.30;4.50;;;;;;;;;;44083;274;3031215;-31
2024/01/29 02:44:37;;;;;;;7.00;4.90;;;;;;;;;;43496;282;3030873;-31
2024/01/29 02:46:31;;;;;;;6.20;4.70;;;;;;;;;;43529;282;3031028;-31
2024/01/29 02:48:16;;;;;;;6.50;4.60;;;;;;;;;;43388;278;3031168;-31
2024/01/29 02:50:06;;;;;;;6.50;4.50;;;;;;;;;;43624;274;3030510;-31
2024/01/29 02:52:00;;;;;;;5.90;4.40;;;;;;;;;;43913;279;3037972;-31
2024/01/29 02:53:49;;;;;;;6.80;4.80;;;;;;;;;;43395;274;3030499;-31
2024/01/29 02:55:38;;;;;;;6.50;4.90;;;;;;;;;;43414;278;3030478;-31
2024/01/29 02:57:25;;;;;;;6.10;4.70;;;;;;;;;;43407;282;3030789;-31
2024/01/29 02:59:12;;;;;;;6.00;4.50;;;;;;;;;;43418;282;3031150;-31
2024/01/29 03:01:04;;;;;;;6.40;4.60;;;;;;;;;;43368;282;3030834;-31
2024/01/29 03:02:51;;;;;;;6.10;4.50;;;;;;;;;;43322;283;3031176;-31
2024/01/29 03:04:37;;;;;;;6.00;4.20;;;;;;;;;;44035;278;3030302;-31
2024/01/29 03:06:25;;;;;;;6.30;4.50;;;;;;;;;;43782;291;3031005;-31
2024/01/29 03:08:20;;;;;;;6.20;4.40;;;;;;;;;;43335;283;3030825;-31
2024/01/29 03:10:09;;;;;;;5.80;4.30;;;;;;;;;;43330;275;3031410;-31
2024/01/29 03:11:53;;;;;;;6.50;4.70;;;;;;;;;;44029;282;3030309;-31
2024/01/29 03:13:42;;;;;;;7.50;4.50;;;;;;;;;;43444;275;3030326;-31
2024/01/29 03:15:36;;;;;;;5.90;4.60;;;;;;;;;;43331;271;3031847;-31
2024/01/29 03:17:29;;;;;;;6.40;4.40;;;;;;;;;;43309;274;3030899;-31
2024/01/29 03:19:19;;;;;;;6.10;4.40;;;;;;;;;;43319;275;3032647;-31
2024/01/29 03:21:14;;;;;;;6.20;4.50;;;;;;;;;;43333;275;3030638;-31
2024/01/29 03:22:59;;;;;;;6.00;4.20;;;;;;;;;;43339;283;3030800;-31
2024/01/29 03:24:46;;;;;;;6.50;4.70;;;;;;;;;;43320;274;3030465;-31
2024/01/29 03:26:36;;;;;;;6.10;4.40;;;;;;;;;;43333;275;3031111;-31
2024/01/29 03:28:23;;;;;;;5.90;4.10;;;;;;;;;;43351;275;3031011;-31
2024/01/29 03:30:12;;;;;;;6.00;4.30;;;;;;;;;;43409;274;3031429;-31
2024/01/29 03:32:04;;;;;;;6.00;4.40;;;;;;;;;;43747;274;3030918;-31
2024/01/29 03:33:57;;;;;;;6.30;4.10;;;;;;;;;;43405;282;3030939;-31
2024/01/29 03:35:52;;;;;;;5.80;4.20;;;;;;;;;;43408;290;3031007;-31
2024/01/29 03:37:40;;;;;;;6.40;4.70;;;;;;;;;;43445;278;3030469;-31
2024/01/29 03:39:27;;;;;;;5.60;4.20;;;;;;;;;;43400;274;3031303;-31
2024/01/29 03:41:21;;;;;;;6.30;4.60;;;;;;;;;;43386;282;3031397;-31
2024/01/29 03:43:10;;;;;;;6.10;4.40;;;;;;;;;;43368;282;3037153;-31
2024/01/29 03:44:59;;;;;;;6.10;4.10;;;;;;;;;;43903;270;3031162;-31
2024/01/29 03:46:46;;;;;;;6.20;4.20;;;;;;;;;;43402;274;3031066;-31
2024/01/29 03:48:32;;;;;;;6.20;4.30;;;;;;;;;;44088;278;3030748;-31
2024/01/29 03:50:20;;;;;;;5.90;4.10;;;;;;;;;;43673;278;3030938;-31
2024/01/29 03:52:05;;;;;;;6.20;4.30;;;;;;;;;;44061;278;3031222;-31
2024/01/29 03:53:57;;;;;;;6.40;4.70;;;;;;;;;;43582;274;3030513;-31
2024/01/29 03:55:46;;;;;;;6.00;4.40;;;;;;;;;;43411;291;3032232;-31
2024/01/29 03:57:33;;;;;;;6.10;4.10;;;;;;;;;;43416;282;3029088;-31
2024/01/29 03:59:25;;;;;;;6.00;4.50;;;;;;;;;;43384;282;3031300;-31
2024/01/29 04:01:10;;;;;;;6.60;4.50;;;;;;;;;;43425;274;3030845;-31
2024/01/29 04:03:00;;;;;;;5.90;4.20;;;;;;;;;;43364;274;3030981;-31
2024/01/29 04:04:48;;;;;;;5.50;4.00;;;;;;;;;;43410;270;3031542;-31
2024/01/29 04:06:39;;;;;;;6.90;4.50;;;;;;;;;;43407;282;3030930;-31
2024/01/29 04:08:28;;;;;;;6.30;4.20;;;;;;;;;;43767;291;3031174;-31
2024/01/29 04:10:17;;;;;;;6.20;4.10;;;;;;;;;;43407;282;3030444;-31
2024/01/29 04:12:09;;;;;;;6.90;4.40;;;;;;;;;;43397;270;3031465;-31
2024/01/29 04:13:55;;;;;;;6.00;4.40;;;;;;;;;;43909;279;3038160;-31
2024/01/29 04:15:45;;;;;;;7.30;4.40;;;;;;;;;;43420;274;3031070;-31
2024/01/29 04:17:35;;;;;;;6.10;4.30;;;;;;;;;;43425;291;3031305;-31
2024/01/29 04:19:23;;;;;;;6.60;4.30;;;;;;;;;;43423;274;3030436;-31
2024/01/29 04:21:09;;;;;;;6.10;4.30;;;;;;;;;;43415;282;3030777;-31
2024/01/29 04:22:55;;;;;;;6.50;4.30;;;;;;;;;;43540;274;3030576;-31
2024/01/29 04:24:46;;;;;;;6.10;4.20;;;;;;;;;;43427;279;3030513;-31
2024/01/29 04:26:33;;;;;;;5.60;4.10;;;;;;;;;;43420;282;3030814;-31
2024/01/29 04:28:19;;;;;;;5.90;4.10;;;;;;;;;;43391;290;3032943;-31
2024/01/29 04:30:06;;;;;;;6.60;4.30;;;;;;;;;;43400;282;3030770;-31
2024/01/29 04:31:53;;;;;;;6.30;4.10;;;;;;;;;;43473;283;3032089;-31
2024/01/29 04:33:46;;;;;;;6.00;4.30;;;;;;;;;;43357;282;3030508;-31
2024/01/29 04:35:34;;;;;;;6.00;4.20;;;;;;;;;;43403;278;3031612;-31
2024/01/29 04:37:19;;;;;;;6.60;4.10;;;;;;;;;;43434;274;3030801;-31
2024/01/29 04:39:04;;;;;;;6.70;4.50;;;;;;;;;;43982;278;3030518;-31
2024/01/29 04:40:54;;;;;;;6.50;4.20;;;;;;;;;;43422;274;3030631;-31
2024/01/29 04:42:41;;;;;;;6.30;4.50;;;;;;;;;;43396;282;3032200;-31
2024/01/29 04:44:26;;;;;;;6.50;4.00;;;;;;;;;;43360;291;3037433;-31
2024/01/29 04:46:11;;;;;;;7.10;4.50;;;;;;;;;;43421;286;3029894;-31
2024/01/29 04:47:59;;;;;;;6.80;4.10;;;;;;;;;;43423;274;3032110;-31
2024/01/29 04:49:47;;;;;;;6.10;4.20;;;;;;;;;;43391;274;3031499;-31
2024/01/29 04:51:40;;;;;;;6.30;4.30;;;;;;;;;;43410;290;3031407;-31
2024/01/29 04:53:30;;;;;;;6.10;4.20;;;;;;;;;;43403;282;3031056;-31
2024/01/29 04:55:17;;;;;;;5.80;3.90;;;;;;;;;;43384;282;3031048;-31
2024/01/29 04:57:07;;;;;;;5.70;4.10;;;;;;;;;;43397;274;3031035;-31
2024/01/29 04:58:51;;;;;;;6.20;4.10;;;;;;;;;;44106;278;3030909;-31
2024/01/29 05:00:36;;;;;;;5.90;3.90;;;;;;;;;;44078;278;3030554;-31
2024/01/29 05:02:21;;;;;;;7.10;4.30;;;;;;;;;;43983;275;3031364;-31
2024/01/29 05:04:06;;;;;;;6.20;4.20;;;;;;;;;;44015;279;3030140;-31
2024/01/29 05:05:51;;;;;;;6.70;4.10;;;;;;;;;;44040;278;3030762;-31
2024/01/29 05:07:40;;;;;;;6.80;4.20;;;;;;;;;;43532;279;3030787;-31
2024/01/29 05:09:33;;;;;;;6.00;4.10;;;;;;;;;;43329;274;3030410;-31
2024/01/29 05:11:24;;;;;;;6.10;3.80;;;;;;;;;;43324;283;3031049;-31
2024/01/29 05:13:16;;;;;;;6.20;4.00;;;;;;;;;;43351;282;3031925;-31
2024/01/29 05:15:06;;;;;;;6.50;3.90;;;;;;;;;;43310;283;3031013;-31
2024/01/29 05:16:51;;;;;;;6.60;4.30;;;;;;;;;;43390;274;3031097;-31
2024/01/29 05:18:44;;;;;;;6.40;4.40;;;;;;;;;;43319;282;3030467;-31
2024/01/29 05:20:30;;;;;;;6.20;4.00;;;;;;;;;;43357;271;3030935;-31
2024/01/29 05:22:24;;;;;;;6.80;4.10;;;;;;;;;;43421;274;3030555;-31
2024/01/29 05:24:13;;;;;;;6.70;4.20;;;;;;;;;;43385;291;3031378;-31
2024/01/29 05:26:00;;;;;;;5.60;3.80;;;;;;;;;;43396;282;3030819;-31
2024/01/29 05:27:55;;;;;;;5.80;3.60;;;;;;;;;;43412;282;3032552;-31
2024/01/29 05:29:39;;;;;;;6.30;3.90;;;;;;;;;;44085;282;3031401;-31
2024/01/29 05:31:24;;;;;;;5.90;3.80;;;;;;;;;;44093;278;3030372;-31
2024/01/29 05:33:11;;;;;;;6.00;3.90;;;;;;;;;;43526;282;3031063;-31
2024/01/29 05:35:12;;;;;;;6.10;4.00;;;;;;;;;;43376;274;3029586;-31
2024/01/29 05:36:57;;;;;;;6.20;3.90;;;;;;;;;;44077;270;3031324;-31
2024/01/29 05:38:42;;;;;;;5.80;4.00;;;;;;;;;;44083;278;3030001;-31
2024/01/29 05:40:32;;;;;;;6.60;4.20;;;;;;;;;;43816;290;3031077;-31
2024/01/29 05:42:17;;;;;;;5.60;4.00;;;;;;;;;;44119;278;3031026;-31
2024/01/29 05:44:02;;;;;;;5.80;3.70;;;;;;;;;;44083;282;3030085;-31
2024/01/29 05:45:52;;;;;;;6.10;3.90;;;;;;;;;;43532;278;3037786;-31
2024/01/29 05:47:47;;;;;;;5.70;3.50;;;;;;;;;;42778;276;3031539;-31
2024/01/29 05:49:41;;;;;;;6.60;4.00;;;;;;;;;;43794;274;3031477;-31
2024/01/29 05:51:29;;;;;;;6.60;4.00;;;;;;;;;;43403;274;3030661;-31
2024/01/29 05:53:20;;;;;;;6.20;3.70;;;;;;;;;;43410;290;3030791;-31
2024/01/29 05:55:09;;;;;;;6.70;3.90;;;;;;;;;;43365;279;3031155;-31
2024/01/29 05:56:59;;;;;;;5.80;3.80;;;;;;;;;;43788;282;3031226;-31
2024/01/29 05:58:49;;;;;;;6.00;3.70;;;;;;;;;;43420;282;3031535;-31
2024/01/29 06:00:39;;;;;;;6.20;3.80;;;;;;;;;;43411;291;3032857;-31
2024/01/29 06:02:27;;;;;;;5.50;3.70;;;;;;;;;;43327;274;3030903;-31
2024/01/29 06:04:15;;;;;;;6.00;3.80;;;;;;;;;;43314;275;3030999;-31
2024/01/29 06:06:07;;;;;;;5.70;3.50;;;;;;;;;;43619;279;3031496;-31
2024/01/29 06:07:54;;;;;;;5.90;3.90;;;;;;;;;;44015;275;3030357;-31
2024/01/29 06:09:42;;;;;;;6.40;3.70;;;;;;;;;;43678;282;3030466;-31
2024/01/29 06:11:33;;;;;;;6.60;3.80;;;;;;;;;;43302;275;3030822;-31
2024/01/29 06:13:21;;;;;;;6.50;4.00;;;;;;;;;;44055;275;3030349;-31
2024/01/29 06:15:07;;;;;;;5.30;3.60;;;;;;;;;;43395;275;3031309;-31
2024/01/29 06:16:55;;;;;;;5.60;3.80;;;;;;;;;;43849;275;3031284;-31
2024/01/29 06:18:45;;;;;;;5.50;3.60;;;;;;;;;;43409;278;3030924;-31
2024/01/29 06:20:35;;;;;;;6.30;4.00;;;;;;;;;;43399;274;3031526;-31
2024/01/29 06:22:24;;;;;;;7.50;3.50;;;;;;;;;;43504;274;3031578;-31
2024/01/29 06:24:10;;;;;;;6.00;4.10;;;;;;;;;;43414;282;3030840;-31
2024/01/29 06:25:59;;;;;;;5.80;3.50;;;;;;;;;;43369;282;3030722;-31
2024/01/29 06:27:50;;;;;;;5.10;3.70;;;;;;;;;;43413;282;3029780;-31
2024/01/29 06:29:43;;;;;;;6.60;3.90;;;;;;;;;;43404;282;3031020;-31
2024/01/29 06:31:31;;;;;;;6.60;3.90;;;;;;;;;;43394;274;3031279;-31
2024/01/29 06:33:21;;;;;;;6.30;3.80;;;;;;;;;;43598;274;3031215;-32
2024/01/29 06:35:08;;;;;;;6.80;4.00;;;;;;;;;;43387;274;3031354;-32
2024/01/29 06:36:56;;;;;;;6.00;3.80;;;;;;;;;;43794;283;3036773;-32
2024/01/29 06:38:42;;;;;;;5.70;3.60;;;;;;;;;;43954;278;3032059;-31
2024/01/29 06:40:31;;;;;;;6.10;3.60;;;;;;;;;;43382;282;3030534;-32
2024/01/29 06:42:20;;;;;;;5.90;3.60;;;;;;;;;;43370;283;3031039;-32
2024/01/29 06:44:08;;;;;;;6.40;3.90;;;;;;;;;;43395;270;3031118;-32
2024/01/29 06:45:56;;;;;;;5.20;3.40;;;;;;;;;;43851;270;3030626;-32
2024/01/29 06:47:47;;;;;;;5.60;3.40;;;;;;;;;;43400;274;3031024;-32
2024/01/29 06:49:35;;;;;;;5.00;3.50;;;;;;;;;;43370;282;3030468;-32
2024/01/29 06:51:26;;;;;;;5.80;3.90;;;;;;;;;;43423;270;3031235;-31
2024/01/29 06:53:14;;;;;;;5.90;3.90;;;;;;;;;;43408;282;3031288;-31
2024/01/29 06:55:03;;;;;;;6.20;3.60;;;;;;;;;;43297;293;3031022;-31
2024/01/29 06:56:50;;;;;;;5.70;3.80;;;;;;;;;;43360;274;3031081;-31
2024/01/29 06:58:40;;;;;;;6.40;3.80;;;;;;;;;;43410;282;3030268;-31
2024/01/29 07:00:26;;;;;;;5.30;3.30;;;;;;;;;;43392;278;3031125;-31
2024/01/29 07:02:11;;;;;;;5.70;3.60;;;;;;;;;;44003;280;3030771;-31
2024/01/29 07:04:03;;;;;;;5.40;3.50;;;;;;;;;;43298;282;3032793;-31
2024/01/29 07:05:53;;;;;;;5.70;3.70;;;;;;;;;;43308;275;3030656;-32
2024/01/29 07:07:47;;;;;;;5.90;3.70;;;;;;;;;;43312;271;3037826;-31
2024/01/29 07:09:41;;;;;;;6.00;3.80;;;;;;;;;;43306;282;3030494;-32
2024/01/29 07:11:45;;;;;;;5.70;3.60;;;;;;;;;;43426;281;3030960;-30
2024/01/29 07:13:31;;;;;;;5.60;3.80;;;;;;;;;;43402;289;3030699;-29
2024/01/29 07:15:18;;;;;;;5.90;3.40;;;;;;;;;;43474;281;3031395;-29
2024/01/29 07:17:05;;;;;;;6.50;3.30;;;;;;;;;;43595;281;3031312;-29
2024/01/29 07:18:52;;;;;;;5.70;3.70;;;;;;;;;;43416;281;3033013;-29
2024/01/29 07:20:43;;;;;;;6.30;3.90;;;;;;;;;;43433;281;3030943;-29
2024/01/29 07:22:37;;;;;;;5.70;3.70;;;;;;;;;;43437;289;3031351;-29
2024/01/29 07:24:28;;;;;;;6.20;3.80;;;;;;;;;;43403;281;3031523;-30
2024/01/29 07:26:17;;;;;;;6.00;3.60;;;;;;;;;;43410;282;3031060;-30
2024/01/29 07:28:04;;;;;;;5.60;3.70;;;;;;;;;;43429;281;3030883;-30
2024/01/29 07:29:54;;;;;;;6.10;3.90;;;;;;;;;;43481;281;3032177;-30
2024/01/29 07:31:38;;;;;;;5.30;3.50;;;;;;;;;;43382;273;3031383;-29
2024/01/29 07:33:23;;;;;;;7.10;3.60;;;;;;;;;;43520;274;3031695;-30
2024/01/29 07:35:10;;;;;;;5.30;3.60;;;;;;;;;;43424;289;3031180;-30
2024/01/29 07:36:57;;;;;;;5.70;3.80;;;;;;;;;;43850;278;3031127;-30
2024/01/29 07:38:48;;;;;;;4.80;3.40;;;;;;;;;;43415;273;3036893;-30
2024/01/29 07:40:33;;;;;;;5.10;3.50;;;;;;;;;;43463;282;3031543;-30
2024/01/29 07:42:17;;;;;;;6.30;3.80;;;;;;;;;;44058;274;3030837;-30
2024/01/29 07:44:02;;;;;;;6.30;3.60;;;;;;;;;;43679;281;3031879;-30
2024/01/29 07:45:46;;;;;;;6.30;3.60;;;;;;;;;;43450;281;3030877;-30
2024/01/29 07:47:31;;;;;;;6.50;3.60;;;;;;;;;;43437;277;3031241;-30
2024/01/29 07:49:16;;;;;;;5.40;3.60;;;;;;;;;;43431;281;3030432;-30
2024/01/29 07:51:01;;;;;;;5.30;3.60;;;;;;;;;;43425;282;3032075;-30
2024/01/29 07:52:45;;;;;;;5.70;3.70;;;;;;;;;;44105;278;3030532;-30
2024/01/29 07:54:34;;;;;;;5.60;3.50;;;;;;;;;;43719;273;3030890;-30
2024/01/29 07:56:22;;;;;;;5.60;3.70;;;;;;;;;;43462;273;3030676;-30
2024/01/29 07:58:08;;;;;;;6.10;3.80;;;;;;;;;;43354;274;3031313;-30
2024/01/29 07:59:57;;;;;;;5.50;3.60;;;;;;;;;;43478;281;3031008;-29
2024/01/29 08:01:44;;;;;;;5.60;3.60;;;;;;;;;;43411;274;3030606;-29
2024/01/29 08:03:29;;;;;;;6.10;3.60;;;;;;;;;;43449;281;3031012;-29
2024/01/29 08:05:17;;;;;;;6.20;4.00;;;;;;;;;;43410;282;3030904;-29
2024/01/29 08:07:06;;;;;;;5.40;3.40;;;;;;;;;;43434;273;3031382;-30
2024/01/29 08:08:55;;;;;;;6.20;3.60;;;;;;;;;;43405;281;3031881;-30
2024/01/29 08:10:46;;;;;;;5.10;3.50;;;;;;;;;;43440;282;3030816;-29
2024/01/29 08:12:38;;;;;;;5.20;3.10;;;;;;;;;;43392;281;3030666;-29
2024/01/29 08:14:23;;;;;;;;;;;;;;;;;;43423;281;3030760;-29
2024/01/29 08:16:12;;;;;;;5.30;3.40;;;;;;;;;;43455;273;3030609;-29
2024/01/29 08:17:56;;;;;;;5.10;3.20;;;;;;;;;;43687;281;3030450;-29
2024/01/29 08:19:45;;;;;;;6.00;3.30;;;;;;;;;;43379;282;3038328;-29
2024/01/29 08:21:35;;;;;;;5.10;3.30;;;;;;;;;;43441;281;3031017;-29
2024/01/29 08:23:26;;;;;;;5.80;3.40;;;;;;;;;;43425;282;3029418;-29
2024/01/29 08:25:12;;;;;;;5.30;3.40;;;;;;;;;;43395;282;3031364;-29
2024/01/29 08:27:00;;;;;;;5.10;3.20;;;;;;;;;;43445;274;3030971;-29
2024/01/29 08:28:45;;;;;;;5.10;3.30;;;;;;;;;;43398;281;3031009;-30
2024/01/29 08:30:34;;;;;;;5.30;3.20;;;;;;;;;;43394;282;3030768;-30
2024/01/29 08:32:23;;;;;;;5.30;3.40;;;;;;;;;;43441;265;3032100;-30
2024/01/29 08:34:14;;;;;;;5.20;3.30;;;;;;;;;;43502;273;3030971;-30
2024/01/29 08:36:01;;;;;;;5.30;3.20;;;;;;;;;;43394;274;3032745;-30
2024/01/29 08:37:47;;;;;;;5.00;3.30;;;;;;;;;;43393;290;3030996;-30
2024/01/29 08:39:32;;;;;;;5.30;3.10;;;;;;;;;;43422;281;3031500;-30
2024/01/29 08:41:25;;;;;;;5.10;3.30;;;;;;;;;;43663;281;3031314;-33
2024/01/29 08:43:12;;;;;;;5.30;3.40;;;;;;;;;;43994;282;3031286;-33
2024/01/29 08:44:57;;;;;;;6.20;3.50;;;;;;;;;;43385;281;3031008;-32
2024/01/29 08:46:44;;;;;;;5.10;3.00;;;;;;;;;;43400;274;3030584;-32
2024/01/29 08:48:30;;;;;;;5.30;3.30;;;;;;;;;;43426;291;3031345;-30
2024/01/29 08:50:15;;;;;;;4.70;3.10;;;;;;;;;;43366;277;3039127;-30
2024/01/29 08:52:03;;;;;;;5.80;3.30;;;;;;;;;;43391;281;3031519;-31
2024/01/29 08:53:50;;;;;;;5.00;3.10;;;;;;;;;;43443;282;3030643;-31
2024/01/29 08:55:35;;;;;;;5.10;3.20;;;;;;;;;;43412;282;3030531;-30
2024/01/29 08:57:21;;;;;;;4.80;3.20;;;;;;;;;;43392;282;3030722;-31
2024/01/29 08:59:07;;;;;;;5.30;3.10;;;;;;;;;;43378;274;3030272;-31
2024/01/29 09:00:54;;;;;;;4.90;3.30;;;;;;;;;;43406;282;3038235;-32
2024/01/29 09:02:39;;;;;;;5.10;3.10;;;;;;;;;;43387;281;3031421;-32
2024/01/29 09:04:23;;;;;;;5.20;3.10;;;;;;;;;;43416;274;3030636;-32
2024/01/29 09:06:09;;;;;;;5.30;3.10;;;;;;;;;;43406;274;3032043;-32
2024/01/29 09:08:01;;;;;;;5.50;3.30;;;;;;;;;;43693;270;3030828;-32
2024/01/29 09:10:00;;;;;;;5.10;3.20;;;;;;;;;;43382;274;3031002;-33
2024/01/29 09:11:47;;;;;;;6.00;3.30;;;;;;;;;;43373;281;3030274;-32
2024/01/29 09:13:38;;;;;;;5.00;2.90;;;;;;;;;;43311;283;3030731;-32
2024/01/29 09:15:22;;;;;;;5.00;3.10;;;;;;;;;;43372;270;3031302;-33
2024/01/29 09:17:09;;;;;;;6.20;3.10;;;;;;;;;;43361;274;3031763;-32
2024/01/29 09:18:53;;;;;;;5.50;3.30;;;;;;;;;;43372;281;3031047;-32
2024/01/29 09:20:38;;;;;;;5.40;3.40;;;;;;;;;;43375;274;3030738;-32
2024/01/29 09:22:22;;;;;;;5.50;3.30;;;;;;;;;;43424;281;3030997;-32
2024/01/29 09:24:08;;;;;;;5.30;3.10;;;;;;;;;;43387;274;3030875;-32
2024/01/29 09:25:53;;;;;;;5.30;3.00;;;;;;;;;;44056;278;3030593;-32
2024/01/29 09:27:38;;;;;;;5.30;3.00;;;;;;;;;;44036;274;3030571;-32
2024/01/29 09:29:27;;;;;;;4.80;2.80;;;;;;;;;;43619;282;3030914;-32
2024/01/29 09:31:15;;;;;;;5.30;2.80;;;;;;;;;;43357;274;3030765;-31
2024/01/29 09:32:59;;;;;;;5.00;2.90;;;;;;;;;;43367;282;3030610;-31
2024/01/29 09:34:58;;;;;;;5.60;3.50;;;;;;;;;;43363;274;3031042;-31
2024/01/29 09:36:44;;;;;;;5.70;3.30;;;;;;;;;;43560;281;3030042;-31
2024/01/29 09:38:30;;;;;;;5.50;2.80;;;;;;;;;;43363;274;3031389;-31
2024/01/29 09:40:17;;;;;;;5.40;3.30;;;;;;;;;;43385;282;3030563;-31
2024/01/29 09:42:06;;;;;;;6.00;3.20;;;;;;;;;;43439;291;3031112;-31
2024/01/29 09:43:55;;;;;;;5.20;3.00;;;;;;;;;;43588;281;3032114;-31
2024/01/29 09:45:41;;;;;;;5.30;3.10;;;;;;;;;;43409;291;3030584;-31
2024/01/29 09:47:31;;;;;;;5.10;3.20;;;;;;;;;;43378;290;3030395;-31
2024/01/29 09:49:15;;;;;;;5.90;3.30;;;;;;;;;;43764;282;3031612;-32
2024/01/29 09:51:05;;;;;;;6.00;3.20;;;;;;;;;;43366;274;3031032;-31
2024/01/29 09:52:51;;;;;;;6.10;3.00;;;;;;;;;;43877;282;3030997;-30
2024/01/29 09:54:39;;;;;;;4.80;3.10;;;;;;;;;;43335;282;3033265;-29
2024/01/29 09:56:23;;;;;;;5.00;3.20;;;;;;;;;;43616;282;3030136;-29
2024/01/29 09:58:08;;;;;;;5.10;3.00;;;;;;;;;;43374;271;3031432;-29
2024/01/29 09:59:54;;;;;;;5.10;3.10;;;;;;;;;;43329;284;3029110;-29
2024/01/29 10:01:41;;;;;;;5.20;2.90;;;;;;;;;;43329;274;3031024;-29
2024/01/29 10:03:31;;;;;;;5.10;3.20;;;;;;;;;;43387;282;3031437;-29
2024/01/29 10:05:16;;;;;;;5.10;3.20;;;;;;;;;;43385;274;3030824;-29
2024/01/29 10:07:02;;;;;;;5.60;3.10;;;;;;;;;;43379;282;3031057;-29
2024/01/29 10:08:47;;;;;;;6.20;3.30;;;;;;;;;;43368;282;3030953;-29
2024/01/29 10:10:32;;;;;;;5.90;3.00;;;;;;;;;;43403;274;3030832;-29
2024/01/29 10:12:26;;;;;;;5.50;3.00;;;;;;;;;;43407;282;3037543;-29
2024/01/29 10:14:15;;;;;;;5.90;3.30;;;;;;;;;;43361;286;3030810;-29
2024/01/29 10:16:03;;;;;;;4.90;3.00;;;;;;;;;;43331;271;3032215;-29
2024/01/29 10:17:48;;;;;;;5.30;3.10;;;;;;;;;;43400;278;3030637;-29
2024/01/29 10:19:43;;;;;;;5.00;3.20;;;;;;;;;;43381;274;3030262;-29
2024/01/29 10:21:32;;;;;;;5.80;3.20;;;;;;;;;;44065;274;3031282;-29
2024/01/29 10:23:16;;;;;;;5.70;3.10;;;;;;;;;;43777;278;3030996;-29
2024/01/29 10:25:06;;;;;;;5.70;3.40;;;;;;;;;;43403;286;3030937;-30
2024/01/29 10:26:51;;;;;;;6.00;3.10;;;;;;;;;;43402;282;3031197;-30
2024/01/29 10:28:36;;;;;;;5.40;3.10;;;;;;;;;;43392;291;3030942;-31
2024/01/29 10:30:23;;;;;;;6.00;3.10;;;;;;;;;;43425;278;3030489;-29
2024/01/29 10:32:10;;;;;;;5.60;3.10;;;;;;;;;;43353;274;3030818;-29
2024/01/29 10:33:58;;;;;;;5.20;3.30;;;;;;;;;;43874;278;3030562;-30
2024/01/29 10:35:44;;;;;;;5.90;3.40;;;;;;;;;;43393;282;3030989;-30
2024/01/29 10:37:31;;;;;;;7.00;3.60;;;;;;;;;;43391;274;3032912;-30
2024/01/29 10:39:18;;;;;;;6.70;3.30;;;;;;;;;;43390;282;3031311;-30
2024/01/29 10:41:04;;;;;;;7.00;3.70;;;;;;;;;;43401;274;3032159;-30